sensor_id;sensor_type;location;lat;lon;timestamp;temperature;humidity
75517;DHT22;64097;52.548;13.406;2024-03-06T06:03:52;9.50;56.10
75517;DHT22;64097;52.548;13.406;2024-03-06T06:06:18;9.50;56.20
75517;DHT22;64097;52.548;13.406;2024-03-06T06:08:46;9.50;56.20
75517;DHT22;64097;52.548;13.406;2024-03-06T06:11:12;9.50;56.20
75517;DHT22;64097;52.548;13.406;2024-03-06T06:13:38;9.50;56.30
75517;DHT22;64097;52.548;13.406;2024-03-06T06:16:08;9.50;56.30
75517;DHT22;64097;52.548;13.406;2024-03-06T06:18:34;9.50;56.40
75517;DHT22;64097;52.548;13.406;2024-03-06T06:21:00;9.50;56.60
75517;DHT22;64097;52.548;13.406;2024-03-06T06:23:26;9.50;56.50
75517;DHT22;64097;52.548;13.406;2024-03-06T06:25:52;9.50;56.60
75517;DHT22;64097;52.548;13.406;2024-03-06T06:28:17;9.50;56.60
75517;DHT22;64097;52.548;13.406;2024-03-06T06:30:43;9.50;56.60
75517;DHT22;64097;52.548;13.406;2024-03-06T06:33:09;9.50;56.70
75517;DHT22;64097;52.548;13.406;2024-03-06T06:35:35;9.50;56.80
75517;DHT22;64097;52.548;13.406;2024-03-06T06:38:01;9.50;56.90
75517;DHT22;64097;52.548;13.406;2024-03-06T06:40:27;9.50;56.90
75517;DHT22;64097;52.548;13.406;2024-03-06T06:42:56;9.60;56.90
75517;DHT22;64097;52.548;13.406;2024-03-06T06:45:22;9.50;56.80
75517;DHT22;64097;52.548;13.406;2024-03-06T06:47:48;9.50;57.20
75517;DHT22;64097;52.548;13.406;2024-03-06T06:50:15;9.50;57.20
75517;DHT22;64097;52.548;13.406;2024-03-06T06:52:42;9.50;57.10
75517;DHT22;64097;52.548;13.406;2024-03-06T06:55:08;9.60;57.10
75517;DHT22;64097;52.548;13.406;2024-03-06T06:57:35;9.60;57.10
75517;DHT22;64097;52.548;13.406;2024-03-06T07:00:01;9.60;57.20
75517;DHT22;64097;52.548;13.406;2024-03-06T07:02:42;9.60;57.30
75517;DHT22;64097;52.548;13.406;2024-03-06T07:05:09;9.60;57.20
75517;DHT22;64097;52.548;13.406;2024-03-06T07:07:36;9.60;57.50
75517;DHT22;64097;52.548;13.406;2024-03-06T07:10:02;9.60;57.50
75517;DHT22;64097;52.548;13.406;2024-03-06T07:12:29;9.60;57.30
75517;DHT22;64097;52.548;13.406;2024-03-06T07:14:54;9.60;57.30
75517;DHT22;64097;52.548;13.406;2024-03-06T07:17:20;9.70;57.30
75517;DHT22;64097;52.548;13.406;2024-03-06T07:19:46;9.70;57.30
75517;DHT22;64097;52.548;13.406;2024-03-06T07:22:12;9.70;57.30
75517;DHT22;64097;52.548;13.406;2024-03-06T07:24:38;9.70;57.20
75517;DHT22;64097;52.548;13.406;2024-03-06T07:27:04;9.80;57.20
75517;DHT22;64097;52.548;13.406;2024-03-06T07:29:30;9.80;57.10
75517;DHT22;64097;52.548;13.406;2024-03-06T07:31:56;9.80;57.10
75517;DHT22;64097;52.548;13.406;2024-03-06T07:34:21;9.80;57.10
75517;DHT22;64097;52.548;13.406;2024-03-06T07:36:48;9.90;57.10
75517;DHT22;64097;52.548;13.406;2024-03-06T07:39:16;9.90;57.00
75517;DHT22;64097;52.548;13.406;2024-03-06T07:41:42;9.90;57.00
75517;DHT22;64097;52.548;13.406;2024-03-06T07:44:08;10.00;57.00
75517;DHT22;64097;52.548;13.406;2024-03-06T07:46:35;10.00;56.90
75517;DHT22;64097;52.548;13.406;2024-03-06T07:49:01;10.00;56.90
75517;DHT22;64097;52.548;13.406;2024-03-06T07:51:28;10.10;56.90
75517;DHT22;64097;52.548;13.406;2024-03-06T07:53:55;10.10;56.90
75517;DHT22;64097;52.548;13.406;2024-03-06T07:56:21;10.10;56.80
75517;DHT22;64097;52.548;13.406;2024-03-06T07:58:47;10.10;56.70
75517;DHT22;64097;52.548;13.406;2024-03-06T08:01:13;10.10;56.70
75517;DHT22;64097;52.548;13.406;2024-03-06T08:03:39;10.20;56.70
75517;DHT22;64097;52.548;13.406;2024-03-06T08:06:06;10.20;56.70
75517;DHT22;64097;52.548;13.406;2024-03-06T08:08:32;10.20;56.60
75517;DHT22;64097;52.548;13.406;2024-03-06T08:10:57;10.30;56.60
75517;DHT22;64097;52.548;13.406;2024-03-06T08:13:23;10.30;56.60
75517;DHT22;64097;52.548;13.406;2024-03-06T08:15:49;10.40;56.60
75517;DHT22;64097;52.548;13.406;2024-03-06T08:18:14;10.40;57.20
75517;DHT22;64097;52.548;13.406;2024-03-06T08:20:41;10.40;56.40
75517;DHT22;64097;52.548;13.406;2024-03-06T08:23:07;10.40;56.40
75517;DHT22;64097;52.548;13.406;2024-03-06T08:25:33;10.50;56.30
75517;DHT22;64097;52.548;13.406;2024-03-06T08:27:59;10.50;56.30
75517;DHT22;64097;52.548;13.406;2024-03-06T08:30:25;10.50;56.20
75517;DHT22;64097;52.548;13.406;2024-03-06T08:32:51;10.60;56.20
75517;DHT22;64097;52.548;13.406;2024-03-06T08:35:16;10.60;56.20
75517;DHT22;64097;52.548;13.406;2024-03-06T08:37:45;10.60;56.10
75517;DHT22;64097;52.548;13.406;2024-03-06T08:40:11;10.70;56.10
75517;DHT22;64097;52.548;13.406;2024-03-06T08:42:49;10.70;55.90
75517;DHT22;64097;52.548;13.406;2024-03-06T08:45:17;10.70;55.90
75517;DHT22;64097;52.548;13.406;2024-03-06T08:47:44;10.80;55.90
75517;DHT22;64097;52.548;13.406;2024-03-06T08:50:11;10.80;55.80
75517;DHT22;64097;52.548;13.406;2024-03-06T08:52:38;10.80;55.80
75517;DHT22;64097;52.548;13.406;2024-03-06T08:55:05;10.90;55.80
75517;DHT22;64097;52.548;13.406;2024-03-06T08:57:31;10.90;56.40
75517;DHT22;64097;52.548;13.406;2024-03-06T08:59:58;10.90;55.70
75517;DHT22;64097;52.548;13.406;2024-03-06T09:02:24;11.00;55.70
75517;DHT22;64097;52.548;13.406;2024-03-06T09:04:51;11.00;55.60
75517;DHT22;64097;52.548;13.406;2024-03-06T09:07:20;11.00;55.60
75517;DHT22;64097;52.548;13.406;2024-03-06T09:09:49;11.10;55.50
75517;DHT22;64097;52.548;13.406;2024-03-06T09:12:17;11.10;55.40
75517;DHT22;64097;52.548;13.406;2024-03-06T09:14:44;11.10;55.30
75517;DHT22;64097;52.548;13.406;2024-03-06T09:17:14;11.20;55.40
75517;DHT22;64097;52.548;13.406;2024-03-06T09:19:43;11.20;55.20
75517;DHT22;64097;52.548;13.406;2024-03-06T09:22:09;11.30;55.10
75517;DHT22;64097;52.548;13.406;2024-03-06T09:24:34;11.30;54.90
75517;DHT22;64097;52.548;13.406;2024-03-06T09:27:02;11.40;54.80
75517;DHT22;64097;52.548;13.406;2024-03-06T09:29:29;11.40;54.40
75517;DHT22;64097;52.548;13.406;2024-03-06T09:31:54;11.40;54.40
75517;DHT22;64097;52.548;13.406;2024-03-06T09:34:20;11.50;54.30
75517;DHT22;64097;52.548;13.406;2024-03-06T09:36:48;11.50;54.30
75517;DHT22;64097;52.548;13.406;2024-03-06T09:39:16;11.60;54.30
75517;DHT22;64097;52.548;13.406;2024-03-06T09:41:45;11.70;54.00
75517;DHT22;64097;52.548;13.406;2024-03-06T09:44:12;11.70;53.70
75517;DHT22;64097;52.548;13.406;2024-03-06T09:46:43;11.80;53.60
75517;DHT22;64097;52.548;13.406;2024-03-06T09:49:16;11.90;53.60
75517;DHT22;64097;52.548;13.406;2024-03-06T09:51:46;11.90;53.40
75517;DHT22;64097;52.548;13.406;2024-03-06T09:54:13;12.00;53.50
75517;DHT22;64097;52.548;13.406;2024-03-06T09:56:48;12.00;53.60
75517;DHT22;64097;52.548;13.406;2024-03-06T09:59:15;12.00;53.50
75517;DHT22;64097;52.548;13.406;2024-03-06T10:01:49;12.10;53.30
75517;DHT22;64097;52.548;13.406;2024-03-06T10:06:48;12.10;53.00
75517;DHT22;64097;52.548;13.406;2024-03-06T10:09:18;12.10;52.80
75517;DHT22;64097;52.548;13.406;2024-03-06T10:11:44;12.10;52.80
75517;DHT22;64097;52.548;13.406;2024-03-06T10:14:10;12.10;53.00
75517;DHT22;64097;52.548;13.406;2024-03-06T10:16:37;12.10;53.10
75517;DHT22;64097;52.548;13.406;2024-03-06T10:19:19;12.20;53.30
75517;DHT22;64097;52.548;13.406;2024-03-06T10:21:47;12.20;52.80
75517;DHT22;64097;52.548;13.406;2024-03-06T10:24:20;12.20;52.70
75517;DHT22;64097;52.548;13.406;2024-03-06T10:26:47;12.20;52.50
75517;DHT22;64097;52.548;13.406;2024-03-06T10:29:18;12.30;52.50
75517;DHT22;64097;52.548;13.406;2024-03-06T10:32:02;12.30;52.30
75517;DHT22;64097;52.548;13.406;2024-03-06T10:34:28;12.40;52.10
75517;DHT22;64097;52.548;13.406;2024-03-06T10:36:59;12.40;52.00
75517;DHT22;64097;52.548;13.406;2024-03-06T10:39:25;12.50;51.80
75517;DHT22;64097;52.548;13.406;2024-03-06T10:41:53;12.50;51.80
75517;DHT22;64097;52.548;13.406;2024-03-06T10:44:24;12.50;51.60
75517;DHT22;64097;52.548;13.406;2024-03-06T10:46:59;12.50;51.60
75517;DHT22;64097;52.548;13.406;2024-03-06T10:49:27;12.50;51.60
75517;DHT22;64097;52.548;13.406;2024-03-06T10:52:01;12.50;51.40
75517;DHT22;64097;52.548;13.406;2024-03-06T10:54:29;12.50;52.20
75517;DHT22;64097;52.548;13.406;2024-03-06T10:56:56;12.50;51.50
75517;DHT22;64097;52.548;13.406;2024-03-06T10:59:24;12.50;51.50
75517;DHT22;64097;52.548;13.406;2024-03-06T11:01:56;12.50;51.70
75517;DHT22;64097;52.548;13.406;2024-03-06T11:04:27;12.50;51.40
75517;DHT22;64097;52.548;13.406;2024-03-06T11:06:55;12.60;51.20
75517;DHT22;64097;52.548;13.406;2024-03-06T11:09:21;12.60;50.80
75517;DHT22;64097;52.548;13.406;2024-03-06T11:11:51;12.60;50.60
75517;DHT22;64097;52.548;13.406;2024-03-06T11:14:17;12.60;50.50
75517;DHT22;64097;52.548;13.406;2024-03-06T11:17:01;12.60;50.60
75517;DHT22;64097;52.548;13.406;2024-03-06T11:19:29;12.70;50.60
75517;DHT22;64097;52.548;13.406;2024-03-06T11:21:56;12.70;50.60
75517;DHT22;64097;52.548;13.406;2024-03-06T11:24:32;12.80;50.80
75517;DHT22;64097;52.548;13.406;2024-03-06T11:27:03;12.80;50.80
75517;DHT22;64097;52.548;13.406;2024-03-06T11:30:06;12.90;50.60
75517;DHT22;64097;52.548;13.406;2024-03-06T11:33:00;13.00;50.30
75517;DHT22;64097;52.548;13.406;2024-03-06T11:35:28;13.10;50.00
75517;DHT22;64097;52.548;13.406;2024-03-06T11:37:54;13.20;49.60
75517;DHT22;64097;52.548;13.406;2024-03-06T11:40:26;13.20;49.70
75517;DHT22;64097;52.548;13.406;2024-03-06T11:42:52;13.20;49.60
75517;DHT22;64097;52.548;13.406;2024-03-06T11:45:19;13.20;48.80
75517;DHT22;64097;52.548;13.406;2024-03-06T11:48:01;13.20;49.10
75517;DHT22;64097;52.548;13.406;2024-03-06T11:50:27;13.20;49.20
75517;DHT22;64097;52.548;13.406;2024-03-06T11:52:54;13.20;48.90
75517;DHT22;64097;52.548;13.406;2024-03-06T11:55:23;13.20;48.70
75517;DHT22;64097;52.548;13.406;2024-03-06T11:57:51;13.20;48.50
75517;DHT22;64097;52.548;13.406;2024-03-06T12:00:21;13.30;48.40
75517;DHT22;64097;52.548;13.406;2024-03-06T12:02:48;13.30;48.50
75517;DHT22;64097;52.548;13.406;2024-03-06T12:05:14;13.30;48.70
75517;DHT22;64097;52.548;13.406;2024-03-06T12:07:52;13.30;48.90
75517;DHT22;64097;52.548;13.406;2024-03-06T12:10:18;13.40;48.70
75517;DHT22;64097;52.548;13.406;2024-03-06T12:12:44;13.50;48.40
75517;DHT22;64097;52.548;13.406;2024-03-06T12:15:16;13.50;47.70
75517;DHT22;64097;52.548;13.406;2024-03-06T12:17:46;13.50;47.00
75517;DHT22;64097;52.548;13.406;2024-03-06T12:20:13;13.50;46.70
75517;DHT22;64097;52.548;13.406;2024-03-06T12:22:52;13.60;46.80
75517;DHT22;64097;52.548;13.406;2024-03-06T12:25:27;13.60;47.00
75517;DHT22;64097;52.548;13.406;2024-03-06T12:28:07;13.60;47.40
75517;DHT22;64097;52.548;13.406;2024-03-06T12:30:41;13.70;47.70
75517;DHT22;64097;52.548;13.406;2024-03-06T12:33:08;13.80;47.70
75517;DHT22;64097;52.548;13.406;2024-03-06T12:35:35;13.90;47.10
75517;DHT22;64097;52.548;13.406;2024-03-06T12:38:15;13.90;46.80
75517;DHT22;64097;52.548;13.406;2024-03-06T12:40:43;13.90;46.50
75517;DHT22;64097;52.548;13.406;2024-03-06T12:43:09;13.90;46.90
75517;DHT22;64097;52.548;13.406;2024-03-06T12:45:35;14.00;46.60
75517;DHT22;64097;52.548;13.406;2024-03-06T12:48:03;13.90;46.60
75517;DHT22;64097;52.548;13.406;2024-03-06T12:50:29;14.00;46.30
75517;DHT22;64097;52.548;13.406;2024-03-06T12:52:54;14.00;46.70
75517;DHT22;64097;52.548;13.406;2024-03-06T12:55:20;13.90;46.80
75517;DHT22;64097;52.548;13.406;2024-03-06T12:57:45;14.00;47.00
75517;DHT22;64097;52.548;13.406;2024-03-06T13:00:12;14.00;47.00
75517;DHT22;64097;52.548;13.406;2024-03-06T13:02:45;14.00;46.80
75517;DHT22;64097;52.548;13.406;2024-03-06T13:05:11;14.00;46.70
75517;DHT22;64097;52.548;13.406;2024-03-06T13:07:36;14.00;46.80
75517;DHT22;64097;52.548;13.406;2024-03-06T13:10:03;14.00;46.50
75517;DHT22;64097;52.548;13.406;2024-03-06T13:12:29;14.10;46.20
75517;DHT22;64097;52.548;13.406;2024-03-06T13:14:54;14.10;46.30
75517;DHT22;64097;52.548;13.406;2024-03-06T13:17:20;14.10;46.40
75517;DHT22;64097;52.548;13.406;2024-03-06T13:19:46;14.10;46.40
75517;DHT22;64097;52.548;13.406;2024-03-06T13:22:11;14.10;46.30
75517;DHT22;64097;52.548;13.406;2024-03-06T13:24:37;14.10;46.40
75517;DHT22;64097;52.548;13.406;2024-03-06T13:27:04;14.10;46.40
75517;DHT22;64097;52.548;13.406;2024-03-06T13:29:29;14.10;46.50
75517;DHT22;64097;52.548;13.406;2024-03-06T13:31:55;14.20;46.70
75517;DHT22;64097;52.548;13.406;2024-03-06T13:34:21;14.20;46.60
75517;DHT22;64097;52.548;13.406;2024-03-06T13:36:47;14.20;46.30
75517;DHT22;64097;52.548;13.406;2024-03-06T13:39:13;14.30;45.90
75517;DHT22;64097;52.548;13.406;2024-03-06T13:41:38;14.30;45.80
75517;DHT22;64097;52.548;13.406;2024-03-06T13:44:06;14.30;45.20
75517;DHT22;64097;52.548;13.406;2024-03-06T13:46:33;14.30;45.40
75517;DHT22;64097;52.548;13.406;2024-03-06T13:48:59;14.30;45.30
75517;DHT22;64097;52.548;13.406;2024-03-06T13:51:26;14.30;44.50
75517;DHT22;64097;52.548;13.406;2024-03-06T13:53:52;14.30;44.50
75517;DHT22;64097;52.548;13.406;2024-03-06T13:56:17;14.30;44.70
75517;DHT22;64097;52.548;13.406;2024-03-06T13:58:43;14.30;44.30
